createdAt,value
2022-09-07T00:02:11.584Z,89
2022-09-07T00:05:36.889Z,89
2022-09-07T00:09:02.164Z,89
2022-09-07T00:12:27.427Z,89
2022-09-07T00:15:52.708Z,89
2022-09-07T00:19:17.928Z,88
2022-09-07T00:22:43.213Z,89
2022-09-07T00:26:08.481Z,89
2022-09-07T00:29:33.708Z,90
2022-09-07T00:32:58.995Z,90
2022-09-07T00:36:24.253Z,89
2022-09-07T00:39:49.555Z,89
2022-09-07T00:43:14.743Z,89
2022-09-07T00:46:40.027Z,89
2022-09-07T00:50:05.254Z,90
2022-09-07T00:53:30.513Z,89
2022-09-07T00:56:55.788Z,89
2022-09-07T01:00:21.061Z,89
2022-09-07T01:03:46.307Z,89
2022-09-07T01:07:11.578Z,89
2022-09-07T01:10:36.865Z,89
2022-09-07T01:14:02.192Z,89
2022-09-07T01:17:27.449Z,89
2022-09-07T01:20:52.737Z,89
2022-09-07T01:24:17.969Z,90
2022-09-07T01:27:43.231Z,90
2022-09-07T01:31:08.551Z,89
2022-09-07T01:34:33.815Z,89
2022-09-07T01:37:59.078Z,90
2022-09-07T01:41:24.349Z,89
2022-09-07T01:44:49.591Z,90
2022-09-07T01:48:14.854Z,90
2022-09-07T01:51:40.085Z,90
2022-09-07T01:55:05.376Z,90
2022-09-07T01:58:30.734Z,91
2022-09-07T02:01:55.897Z,90
2022-09-07T02:05:21.126Z,91
2022-09-07T02:08:46.384Z,91
2022-09-07T02:12:11.626Z,91
2022-09-07T02:15:36.908Z,91
2022-09-07T02:19:02.164Z,91
2022-09-07T02:22:27.399Z,91
2022-09-07T02:25:52.680Z,91
2022-09-07T02:29:17.955Z,91
2022-09-07T02:32:43.211Z,91
2022-09-07T02:36:08.435Z,91
2022-09-07T02:39:33.748Z,91
2022-09-07T02:42:59.005Z,91
2022-09-07T02:46:24.358Z,91
2022-09-07T02:49:49.555Z,91
2022-09-07T02:53:14.809Z,91
2022-09-07T02:56:40.083Z,91
2022-09-07T03:00:05.366Z,91
2022-09-07T03:03:30.668Z,91
2022-09-07T03:06:55.889Z,90
2022-09-07T03:10:21.200Z,91
2022-09-07T03:13:46.454Z,91
2022-09-07T03:17:11.741Z,91
2022-09-07T03:20:37.020Z,91
2022-09-07T03:24:02.291Z,90
2022-09-07T03:27:27.566Z,90
2022-09-07T03:30:52.871Z,91
2022-09-07T03:34:18.053Z,90
2022-09-07T03:37:43.366Z,90
2022-09-07T03:41:08.674Z,90
2022-09-07T03:44:33.943Z,90
2022-09-07T03:47:59.238Z,91
2022-09-07T03:51:24.475Z,91
2022-09-07T03:54:49.750Z,91
2022-09-07T03:58:15.022Z,90
2022-09-07T04:01:40.381Z,89
2022-09-07T04:05:05.549Z,89
2022-09-07T04:08:31.020Z,89
2022-09-07T04:11:56.102Z,90
2022-09-07T04:15:21.338Z,90
2022-09-07T04:18:46.614Z,90
2022-09-07T04:22:11.894Z,90
2022-09-07T04:25:37.183Z,90
2022-09-07T04:29:02.466Z,90
2022-09-07T04:32:27.718Z,90
2022-09-07T04:35:53.015Z,90
2022-09-07T04:39:18.272Z,90
2022-09-07T04:42:43.518Z,90
2022-09-07T04:46:08.823Z,90
2022-09-07T04:49:34.017Z,90
2022-09-07T04:52:59.239Z,90
2022-09-07T04:56:24.469Z,90
2022-09-07T04:59:49.701Z,90
2022-09-07T05:03:14.986Z,90
2022-09-07T05:06:40.280Z,91
2022-09-07T05:10:05.624Z,91
2022-09-07T05:13:30.890Z,92
2022-09-07T05:16:56.178Z,93
2022-09-07T05:20:21.347Z,93
2022-09-07T05:23:46.601Z,93
2022-09-07T05:27:11.848Z,92
2022-09-07T05:37:27.614Z,92
2022-09-07T05:40:52.853Z,92
2022-09-07T05:47:43.344Z,91
2022-09-07T05:51:08.578Z,91
2022-09-07T05:54:33.837Z,91
2022-09-07T05:57:59.097Z,91
2022-09-07T06:01:24.354Z,92
2022-09-07T06:04:49.583Z,91
2022-09-07T06:08:14.899Z,91
2022-09-07T06:11:40.184Z,92
2022-09-07T06:15:05.463Z,91
2022-09-07T06:18:30.735Z,91
2022-09-07T06:21:56.007Z,91
2022-09-07T06:25:21.267Z,91
2022-09-07T06:28:49.067Z,92
2022-09-07T06:35:37.070Z,91
2022-09-07T06:39:02.352Z,91
2022-09-07T06:42:27.615Z,91
2022-09-07T06:45:53.324Z,91
2022-09-07T06:49:18.156Z,91
2022-09-07T06:56:08.706Z,91
2022-09-07T06:59:34.009Z,92
2022-09-07T07:02:59.321Z,93
2022-09-07T07:06:24.536Z,93
2022-09-07T07:09:49.794Z,94
2022-09-07T07:16:38.331Z,94
2022-09-07T07:20:03.576Z,94
2022-09-07T07:23:28.920Z,94
2022-09-07T07:26:54.165Z,93
2022-09-07T07:30:19.441Z,94
2022-09-07T07:33:44.789Z,92
2022-09-07T07:37:09.983Z,91
2022-09-07T07:40:37.516Z,91
2022-09-07T07:44:00.787Z,90
2022-09-07T07:47:25.781Z,89
2022-09-07T07:50:51.140Z,90
2022-09-07T07:54:16.336Z,89
2022-09-07T07:57:41.589Z,88
2022-09-07T08:01:06.897Z,89
2022-09-07T08:04:32.132Z,87
2022-09-07T08:07:57.432Z,87
2022-09-07T08:11:22.673Z,86
2022-09-07T08:14:47.936Z,88
2022-09-07T08:18:13.221Z,87
2022-09-07T08:21:38.505Z,87
2022-09-07T08:25:03.818Z,87
2022-09-07T08:28:29.026Z,86
2022-09-07T08:31:54.358Z,87
2022-09-07T08:35:19.633Z,87
2022-09-07T08:38:44.910Z,87
2022-09-07T08:42:10.178Z,86
2022-09-07T08:45:35.417Z,85
2022-09-07T08:49:00.717Z,86
2022-09-07T08:52:25.997Z,86
2022-09-07T08:55:51.273Z,85
2022-09-07T08:59:16.545Z,86
2022-09-07T09:02:44.198Z,86
2022-09-07T09:06:07.130Z,85
2022-09-07T09:09:32.267Z,84
2022-09-07T09:12:57.519Z,85
2022-09-07T09:16:22.853Z,85
2022-09-07T09:19:48.059Z,82
2022-09-07T09:23:13.317Z,82
2022-09-07T09:26:38.603Z,82
2022-09-07T09:30:03.851Z,81
2022-09-07T09:33:29.134Z,82
2022-09-07T09:36:54.355Z,84
2022-09-07T09:40:19.695Z,83
2022-09-07T09:43:44.936Z,84
2022-09-07T09:54:00.753Z,80
2022-09-07T09:57:25.914Z,76
2022-09-07T10:04:18.322Z,73
2022-09-07T10:07:41.517Z,74
2022-09-07T10:11:06.711Z,74
2022-09-07T10:14:31.986Z,73
2022-09-07T10:17:57.190Z,73
2022-09-07T10:21:22.396Z,74
2022-09-07T10:24:47.712Z,74
2022-09-07T10:28:12.851Z,75
2022-09-07T10:31:38.122Z,74
2022-09-07T10:35:03.339Z,75
2022-09-07T10:38:28.583Z,75
2022-09-07T10:41:53.845Z,75
2022-09-07T10:45:19.014Z,73
2022-09-07T10:48:44.195Z,74
2022-09-07T10:52:09.394Z,73
2022-09-07T10:55:34.573Z,72
2022-09-07T10:59:01.772Z,73
2022-09-07T11:02:25.302Z,72
2022-09-07T11:05:50.413Z,72
2022-09-07T11:09:16.838Z,73
2022-09-07T11:12:40.897Z,72
2022-09-07T11:16:06.328Z,73
2022-09-07T11:19:35.260Z,73
2022-09-07T11:22:56.426Z,72
2022-09-07T11:26:21.616Z,74
2022-09-07T11:29:46.817Z,72
2022-09-07T11:33:12.086Z,71
2022-09-07T11:36:37.239Z,70
2022-09-07T11:40:02.579Z,69
2022-09-07T11:43:27.720Z,71
2022-09-07T11:46:52.980Z,69
2022-09-07T11:50:18.182Z,69
2022-09-07T11:53:43.382Z,67
2022-09-07T11:57:08.641Z,68
2022-09-07T12:00:33.879Z,68
2022-09-07T12:03:59.218Z,68
2022-09-07T12:07:24.369Z,66
2022-09-07T12:10:49.585Z,66
2022-09-07T12:14:14.801Z,65
2022-09-07T12:17:40.081Z,67
2022-09-07T12:21:05.249Z,65
2022-09-07T12:24:30.573Z,66
2022-09-07T12:27:55.827Z,66
2022-09-07T12:31:21.439Z,65
2022-09-07T12:34:46.368Z,64
2022-09-07T12:38:11.663Z,64
2022-09-07T12:41:36.939Z,64
2022-09-07T12:45:02.187Z,64
2022-09-07T12:48:27.393Z,66
2022-09-07T12:52:03.426Z,65
2022-09-07T12:55:27.751Z,64
2022-09-07T12:58:43.133Z,66
2022-09-07T13:02:08.510Z,64
2022-09-07T13:05:33.605Z,64
2022-09-07T13:08:58.826Z,65
2022-09-07T13:15:49.482Z,64
2022-09-07T13:19:14.645Z,63
2022-09-07T13:22:39.930Z,64
2022-09-07T13:26:05.152Z,65
2022-09-07T13:29:30.780Z,63
2022-09-07T13:33:10.991Z,63
2022-09-07T13:36:20.844Z,62
2022-09-07T13:39:46.120Z,64
2022-09-07T13:43:11.292Z,64
2022-09-07T13:46:36.623Z,63
2022-09-07T13:50:01.790Z,63
2022-09-07T13:53:26.980Z,63
2022-09-07T13:56:52.200Z,65
2022-09-07T14:00:17.426Z,63
2022-09-07T14:03:42.663Z,65
2022-09-07T14:07:07.905Z,64
2022-09-07T14:10:33.078Z,64
2022-09-07T14:13:58.314Z,63
2022-09-07T14:17:23.539Z,63
2022-09-07T14:20:48.762Z,63
2022-09-07T14:24:13.969Z,64
2022-09-07T14:27:39.115Z,64
2022-09-07T15:07:00.762Z,63
2022-09-07T15:09:37.445Z,64
2022-09-07T15:13:02.647Z,64
2022-09-07T15:16:27.855Z,64
2022-09-07T15:19:53.107Z,64
2022-09-07T15:23:18.379Z,65
2022-09-07T15:30:09.293Z,65
2022-09-07T15:33:34.513Z,66
2022-09-07T15:37:00.666Z,65
2022-09-07T15:40:25.001Z,65
2022-09-07T15:43:50.196Z,66
2022-09-07T15:50:41.969Z,66
2022-09-07T15:54:11.360Z,66
2022-09-07T16:04:23.873Z,65
2022-09-07T16:11:14.666Z,65
2022-09-07T16:14:37.550Z,67
2022-09-07T16:18:05.658Z,67
2022-09-07T16:21:30.883Z,66
2022-09-07T16:24:56.131Z,66
2022-09-07T16:28:21.300Z,66
2022-09-07T16:35:11.810Z,66
2022-09-07T16:38:44.887Z,68
2022-09-07T16:42:02.252Z,67
2022-09-07T16:48:52.785Z,67
2022-09-07T16:52:17.990Z,67
2022-09-07T16:55:43.254Z,67
2022-09-07T16:59:08.482Z,68
2022-09-07T17:02:33.749Z,68
2022-09-07T17:05:58.995Z,68
2022-09-07T17:09:24.219Z,68
2022-09-07T17:12:49.478Z,69
2022-09-07T17:16:14.796Z,71
2022-09-07T17:19:40.053Z,73
2022-09-07T17:23:05.288Z,72
2022-09-07T17:26:30.482Z,73
2022-09-07T17:29:55.702Z,73
2022-09-07T17:33:21.009Z,73
2022-09-07T17:36:46.179Z,73
2022-09-07T17:40:11.471Z,73
2022-09-07T17:43:45.185Z,74
2022-09-07T17:47:01.922Z,74
2022-09-07T17:50:27.081Z,75
2022-09-07T17:53:52.315Z,76
2022-09-07T17:57:17.592Z,76
2022-09-07T18:00:42.884Z,75
2022-09-07T18:04:08.198Z,74
2022-09-07T18:07:33.296Z,73
2022-09-07T18:14:23.811Z,71
2022-09-07T18:17:49.041Z,71
2022-09-07T18:21:14.286Z,71
2022-09-07T18:24:39.611Z,73
2022-09-07T18:31:30.114Z,73
2022-09-07T18:34:55.198Z,73
2022-09-07T18:38:20.479Z,74
2022-09-07T18:41:45.707Z,73
2022-09-07T18:48:36.249Z,73
2022-09-07T18:55:26.716Z,76
2022-09-07T18:58:51.942Z,75
2022-09-07T19:02:17.602Z,75
2022-09-07T19:05:50.239Z,77
2022-09-07T19:09:07.680Z,77
2022-09-07T19:12:32.924Z,78
2022-09-07T19:15:58.199Z,78
2022-09-07T19:19:23.432Z,78
2022-09-07T19:22:48.743Z,79
2022-09-07T19:26:13.972Z,80
2022-09-07T19:29:39.227Z,81
2022-09-07T19:33:04.816Z,80
2022-09-07T19:36:29.741Z,80
2022-09-07T19:39:55.423Z,81
2022-09-07T19:43:20.283Z,80
2022-09-07T19:46:45.547Z,80
2022-09-07T19:50:10.785Z,80
2022-09-07T19:53:36.031Z,80
2022-09-07T19:57:02.170Z,81
2022-09-07T20:00:27.438Z,81
2022-09-07T20:03:52.769Z,82
2022-09-07T20:07:17.951Z,82
2022-09-07T20:10:43.221Z,83
2022-09-07T20:14:08.489Z,84
2022-09-07T20:17:35.429Z,84
2022-09-07T20:20:58.943Z,83
2022-09-07T20:24:24.215Z,82
2022-09-07T20:27:49.444Z,81
2022-09-07T20:31:14.753Z,82
2022-09-07T20:34:39.922Z,81
2022-09-07T20:38:05.123Z,81
2022-09-07T20:41:30.373Z,82
2022-09-07T20:44:55.609Z,82
2022-09-07T20:48:20.901Z,82
2022-09-07T20:51:46.125Z,82
2022-09-07T20:55:11.363Z,82
2022-09-07T20:58:36.581Z,82
2022-09-07T21:02:01.871Z,83
2022-09-07T21:05:27.173Z,82
2022-09-07T21:08:52.304Z,83
2022-09-07T21:12:17.564Z,83
2022-09-07T21:15:42.807Z,83
2022-09-07T21:19:08.060Z,83
2022-09-07T21:22:33.336Z,82
2022-09-07T21:25:58.564Z,83
2022-09-07T21:29:23.818Z,82
2022-09-07T21:32:49.076Z,82
2022-09-07T21:36:14.341Z,82
2022-09-07T21:39:39.678Z,82
2022-09-07T21:43:04.832Z,82
2022-09-07T21:46:30.149Z,82
2022-09-07T21:49:55.362Z,82
2022-09-07T21:53:20.604Z,81
2022-09-07T21:56:46.751Z,82
2022-09-07T22:00:11.077Z,83
2022-09-07T22:03:36.354Z,83
2022-09-07T22:07:01.634Z,83
2022-09-07T22:10:26.921Z,83
2022-09-07T22:13:52.246Z,83
2022-09-07T22:17:17.494Z,84
2022-09-07T22:20:42.789Z,83
2022-09-07T22:24:08.106Z,83
2022-09-07T22:27:33.386Z,83
2022-09-07T22:30:58.768Z,83
2022-09-07T22:34:23.947Z,83
2022-09-07T22:37:49.212Z,84
2022-09-07T22:41:14.518Z,84
2022-09-07T22:44:39.809Z,84
2022-09-07T22:48:05.128Z,84
2022-09-07T22:51:30.398Z,84
2022-09-07T22:54:55.701Z,85
2022-09-07T22:58:20.980Z,85
2022-09-07T23:01:46.264Z,85
2022-09-07T23:05:11.627Z,85
2022-09-07T23:08:36.852Z,85
2022-09-07T23:12:02.139Z,85
2022-09-07T23:15:27.455Z,85
2022-09-07T23:18:52.735Z,85
2022-09-07T23:22:18.051Z,85
2022-09-07T23:25:43.301Z,86
2022-09-07T23:29:08.598Z,85
2022-09-07T23:32:33.874Z,86
2022-09-07T23:35:59.162Z,86
2022-09-07T23:39:24.480Z,85
2022-09-07T23:42:49.735Z,86
2022-09-07T23:46:15.109Z,86
2022-09-07T23:49:40.327Z,86
2022-09-07T23:53:05.634Z,85
2022-09-07T23:56:30.988Z,86
2022-09-07T23:59:56.183Z,86
